sensor_id;sensor_type;location;lat;lon;timestamp;temperature;humidity
44705;DHT22;30431;48.520;9.046;2023-01-08T00:01:50;1.30;99.90
44705;DHT22;30431;48.520;9.046;2023-01-08T00:04:18;1.20;99.90
44705;DHT22;30431;48.520;9.046;2023-01-08T00:06:45;1.20;99.90
44705;DHT22;30431;48.520;9.046;2023-01-08T00:09:14;1.20;99.90
44705;DHT22;30431;48.520;9.046;2023-01-08T00:11:41;1.20;99.90
44705;DHT22;30431;48.520;9.046;2023-01-08T00:14:11;1.20;99.90
44705;DHT22;30431;48.520;9.046;2023-01-08T00:16:38;1.20;99.90
44705;DHT22;30431;48.520;9.046;2023-01-08T00:19:07;1.30;99.90
44705;DHT22;30431;48.520;9.046;2023-01-08T00:21:34;1.30;99.90
44705;DHT22;30431;48.520;9.046;2023-01-08T00:24:03;1.30;99.90
44705;DHT22;30431;48.520;9.046;2023-01-08T00:26:36;1.40;99.90
44705;DHT22;30431;48.520;9.046;2023-01-08T00:29:06;1.40;99.90
44705;DHT22;30431;48.520;9.046;2023-01-08T00:31:33;1.40;99.90
44705;DHT22;30431;48.520;9.046;2023-01-08T00:34:02;1.40;99.90
44705;DHT22;30431;48.520;9.046;2023-01-08T00:36:30;1.50;99.90
44705;DHT22;30431;48.520;9.046;2023-01-08T00:38:58;1.50;99.90
44705;DHT22;30431;48.520;9.046;2023-01-08T00:41:25;1.50;99.90
44705;DHT22;30431;48.520;9.046;2023-01-08T00:43:54;1.50;99.90
44705;DHT22;30431;48.520;9.046;2023-01-08T00:46:21;1.50;99.90
44705;DHT22;30431;48.520;9.046;2023-01-08T00:48:48;1.40;99.90
44705;DHT22;30431;48.520;9.046;2023-01-08T00:51:15;1.40;99.90
44705;DHT22;30431;48.520;9.046;2023-01-08T00:53:43;1.50;99.90
44705;DHT22;30431;48.520;9.046;2023-01-08T00:56:14;1.40;99.90
44705;DHT22;30431;48.520;9.046;2023-01-08T00:58:43;1.50;99.90
44705;DHT22;30431;48.520;9.046;2023-01-08T01:01:12;1.50;99.90
44705;DHT22;30431;48.520;9.046;2023-01-08T01:03:42;1.50;99.90
44705;DHT22;30431;48.520;9.046;2023-01-08T01:06:10;1.50;99.90
44705;DHT22;30431;48.520;9.046;2023-01-08T01:08:37;1.50;99.90
44705;DHT22;30431;48.520;9.046;2023-01-08T01:11:05;1.50;99.90
44705;DHT22;30431;48.520;9.046;2023-01-08T01:13:37;1.50;99.90
44705;DHT22;30431;48.520;9.046;2023-01-08T01:16:07;1.50;99.90
44705;DHT22;30431;48.520;9.046;2023-01-08T01:18:34;1.50;99.90
44705;DHT22;30431;48.520;9.046;2023-01-08T01:21:01;1.60;99.90
44705;DHT22;30431;48.520;9.046;2023-01-08T01:23:28;1.60;99.90
44705;DHT22;30431;48.520;9.046;2023-01-08T01:25:57;1.60;99.90
44705;DHT22;30431;48.520;9.046;2023-01-08T01:28:24;1.70;99.90
44705;DHT22;30431;48.520;9.046;2023-01-08T01:30:55;1.70;99.90
44705;DHT22;30431;48.520;9.046;2023-01-08T01:33:23;1.60;99.90
44705;DHT22;30431;48.520;9.046;2023-01-08T01:35:58;1.70;99.90
44705;DHT22;30431;48.520;9.046;2023-01-08T01:38:26;1.70;99.90
44705;DHT22;30431;48.520;9.046;2023-01-08T01:40:53;1.70;99.90
44705;DHT22;30431;48.520;9.046;2023-01-08T01:43:39;1.70;99.90
44705;DHT22;30431;48.520;9.046;2023-01-08T01:46:38;1.60;99.90
44705;DHT22;30431;48.520;9.046;2023-01-08T01:49:09;1.70;99.90
44705;DHT22;30431;48.520;9.046;2023-01-08T01:51:44;1.70;99.90
44705;DHT22;30431;48.520;9.046;2023-01-08T01:54:13;1.70;99.90
44705;DHT22;30431;48.520;9.046;2023-01-08T01:56:42;1.80;99.90
44705;DHT22;30431;48.520;9.046;2023-01-08T01:59:12;1.80;99.90
44705;DHT22;30431;48.520;9.046;2023-01-08T02:01:41;1.80;99.90
44705;DHT22;30431;48.520;9.046;2023-01-08T02:04:12;1.90;99.90
44705;DHT22;30431;48.520;9.046;2023-01-08T02:21:03;2.50;99.90
44705;DHT22;30431;48.520;9.046;2023-01-08T02:26:30;2.30;99.90
44705;DHT22;30431;48.520;9.046;2023-01-08T02:31:31;2.40;99.90
44705;DHT22;30431;48.520;9.046;2023-01-08T02:34:01;2.50;99.90
44705;DHT22;30431;48.520;9.046;2023-01-08T02:36:42;2.60;99.90
44705;DHT22;30431;48.520;9.046;2023-01-08T02:50:20;2.40;99.90
44705;DHT22;30431;48.520;9.046;2023-01-08T02:52:59;2.30;99.90
44705;DHT22;30431;48.520;9.046;2023-01-08T02:55:29;2.30;99.90
44705;DHT22;30431;48.520;9.046;2023-01-08T02:57:58;2.30;99.90
44705;DHT22;30431;48.520;9.046;2023-01-08T03:00:25;2.20;99.90
44705;DHT22;30431;48.520;9.046;2023-01-08T03:03:24;2.20;99.90
44705;DHT22;30431;48.520;9.046;2023-01-08T03:06:02;2.20;99.90
44705;DHT22;30431;48.520;9.046;2023-01-08T03:08:37;2.20;99.90
44705;DHT22;30431;48.520;9.046;2023-01-08T03:11:06;2.30;99.90
44705;DHT22;30431;48.520;9.046;2023-01-08T03:16:15;2.40;99.90
44705;DHT22;30431;48.520;9.046;2023-01-08T03:18:54;2.40;99.90
44705;DHT22;30431;48.520;9.046;2023-01-08T03:21:24;2.50;99.90
44705;DHT22;30431;48.520;9.046;2023-01-08T03:23:51;2.50;99.90
44705;DHT22;30431;48.520;9.046;2023-01-08T03:26:23;2.50;99.90
44705;DHT22;30431;48.520;9.046;2023-01-08T03:28:53;2.50;99.90
44705;DHT22;30431;48.520;9.046;2023-01-08T03:31:26;2.50;99.90
44705;DHT22;30431;48.520;9.046;2023-01-08T03:33:54;2.50;99.90
44705;DHT22;30431;48.520;9.046;2023-01-08T03:36:26;2.50;99.90
44705;DHT22;30431;48.520;9.046;2023-01-08T03:39:16;2.60;99.90
44705;DHT22;30431;48.520;9.046;2023-01-08T03:41:48;2.60;99.90
44705;DHT22;30431;48.520;9.046;2023-01-08T03:44:15;2.50;99.90
44705;DHT22;30431;48.520;9.046;2023-01-08T03:46:49;2.60;99.90
44705;DHT22;30431;48.520;9.046;2023-01-08T03:49:20;2.50;99.90
44705;DHT22;30431;48.520;9.046;2023-01-08T03:51:52;2.40;99.90
44705;DHT22;30431;48.520;9.046;2023-01-08T03:54:22;2.40;99.90
44705;DHT22;30431;48.520;9.046;2023-01-08T03:56:53;2.30;99.90
44705;DHT22;30431;48.520;9.046;2023-01-08T03:59:22;2.30;99.90
44705;DHT22;30431;48.520;9.046;2023-01-08T04:01:51;2.20;99.90
44705;DHT22;30431;48.520;9.046;2023-01-08T04:04:18;2.20;99.90
44705;DHT22;30431;48.520;9.046;2023-01-08T04:06:45;2.30;99.90
44705;DHT22;30431;48.520;9.046;2023-01-08T04:09:12;2.40;99.90
44705;DHT22;30431;48.520;9.046;2023-01-08T04:11:40;2.40;99.90
44705;DHT22;30431;48.520;9.046;2023-01-08T04:14:10;2.40;99.90
44705;DHT22;30431;48.520;9.046;2023-01-08T04:16:42;2.40;99.90
44705;DHT22;30431;48.520;9.046;2023-01-08T04:19:12;2.50;99.90
44705;DHT22;30431;48.520;9.046;2023-01-08T04:21:40;2.50;99.90
44705;DHT22;30431;48.520;9.046;2023-01-08T04:24:11;2.60;99.90
44705;DHT22;30431;48.520;9.046;2023-01-08T04:26:38;2.60;99.90
44705;DHT22;30431;48.520;9.046;2023-01-08T04:29:07;2.60;99.90
44705;DHT22;30431;48.520;9.046;2023-01-08T04:31:37;2.60;99.90
44705;DHT22;30431;48.520;9.046;2023-01-08T04:34:04;2.70;99.90
44705;DHT22;30431;48.520;9.046;2023-01-08T04:36:35;2.70;99.90
44705;DHT22;30431;48.520;9.046;2023-01-08T04:39:03;2.70;99.90
44705;DHT22;30431;48.520;9.046;2023-01-08T04:41:34;2.70;99.90
44705;DHT22;30431;48.520;9.046;2023-01-08T04:44:02;2.70;99.90
44705;DHT22;30431;48.520;9.046;2023-01-08T04:46:29;2.80;99.90
44705;DHT22;30431;48.520;9.046;2023-01-08T04:48:59;2.90;99.90
44705;DHT22;30431;48.520;9.046;2023-01-08T04:51:29;2.80;99.90
44705;DHT22;30431;48.520;9.046;2023-01-08T04:54:00;2.90;99.90
44705;DHT22;30431;48.520;9.046;2023-01-08T04:56:27;3.00;99.90
44705;DHT22;30431;48.520;9.046;2023-01-08T04:58:54;3.10;99.90
44705;DHT22;30431;48.520;9.046;2023-01-08T05:01:23;3.20;99.90
44705;DHT22;30431;48.520;9.046;2023-01-08T05:03:58;3.30;99.90
44705;DHT22;30431;48.520;9.046;2023-01-08T05:06:27;3.40;99.90
44705;DHT22;30431;48.520;9.046;2023-01-08T05:08:54;3.50;99.90
44705;DHT22;30431;48.520;9.046;2023-01-08T05:11:21;3.50;99.90
44705;DHT22;30431;48.520;9.046;2023-01-08T05:13:50;3.30;99.90
44705;DHT22;30431;48.520;9.046;2023-01-08T05:16:19;3.10;99.90
44705;DHT22;30431;48.520;9.046;2023-01-08T05:18:47;3.20;99.90
44705;DHT22;30431;48.520;9.046;2023-01-08T05:21:14;3.40;99.90
44705;DHT22;30431;48.520;9.046;2023-01-08T05:23:45;3.50;99.90
44705;DHT22;30431;48.520;9.046;2023-01-08T05:26:15;3.60;99.90
44705;DHT22;30431;48.520;9.046;2023-01-08T05:28:45;3.60;99.90
44705;DHT22;30431;48.520;9.046;2023-01-08T05:31:15;3.70;99.90
44705;DHT22;30431;48.520;9.046;2023-01-08T05:33:42;3.80;99.90
44705;DHT22;30431;48.520;9.046;2023-01-08T05:36:16;3.70;99.90
44705;DHT22;30431;48.520;9.046;2023-01-08T05:38:43;3.80;99.90
44705;DHT22;30431;48.520;9.046;2023-01-08T05:41:10;3.80;99.90
44705;DHT22;30431;48.520;9.046;2023-01-08T05:43:38;3.80;99.90
44705;DHT22;30431;48.520;9.046;2023-01-08T05:46:07;3.90;99.90
44705;DHT22;30431;48.520;9.046;2023-01-08T05:48:35;3.90;99.90
44705;DHT22;30431;48.520;9.046;2023-01-08T05:51:07;4.00;99.90
44705;DHT22;30431;48.520;9.046;2023-01-08T05:53:34;4.00;99.90
44705;DHT22;30431;48.520;9.046;2023-01-08T05:56:07;4.00;99.90
44705;DHT22;30431;48.520;9.046;2023-01-08T05:58:35;4.10;99.90
44705;DHT22;30431;48.520;9.046;2023-01-08T06:01:05;4.10;99.90
44705;DHT22;30431;48.520;9.046;2023-01-08T06:03:32;4.20;99.90
44705;DHT22;30431;48.520;9.046;2023-01-08T06:06:00;4.30;99.90
44705;DHT22;30431;48.520;9.046;2023-01-08T06:08:28;4.30;99.90
44705;DHT22;30431;48.520;9.046;2023-01-08T06:11:06;4.20;99.90
44705;DHT22;30431;48.520;9.046;2023-01-08T06:13:36;4.20;99.90
44705;DHT22;30431;48.520;9.046;2023-01-08T06:16:06;4.30;99.90
44705;DHT22;30431;48.520;9.046;2023-01-08T06:18:33;4.40;99.90
44705;DHT22;30431;48.520;9.046;2023-01-08T06:21:03;4.50;99.90
44705;DHT22;30431;48.520;9.046;2023-01-08T06:23:33;4.50;99.90
44705;DHT22;30431;48.520;9.046;2023-01-08T06:26:02;4.50;99.90
44705;DHT22;30431;48.520;9.046;2023-01-08T06:28:30;4.50;99.90
44705;DHT22;30431;48.520;9.046;2023-01-08T06:31:02;4.60;99.90
44705;DHT22;30431;48.520;9.046;2023-01-08T06:33:32;4.60;99.90
44705;DHT22;30431;48.520;9.046;2023-01-08T06:36:06;4.60;99.90
44705;DHT22;30431;48.520;9.046;2023-01-08T06:38:34;4.60;99.90
44705;DHT22;30431;48.520;9.046;2023-01-08T06:41:06;4.70;99.90
44705;DHT22;30431;48.520;9.046;2023-01-08T06:43:37;4.70;99.90
44705;DHT22;30431;48.520;9.046;2023-01-08T06:46:07;4.80;99.90
44705;DHT22;30431;48.520;9.046;2023-01-08T06:48:35;4.80;99.90
44705;DHT22;30431;48.520;9.046;2023-01-08T06:51:05;4.90;99.90
44705;DHT22;30431;48.520;9.046;2023-01-08T06:53:34;4.90;99.90
44705;DHT22;30431;48.520;9.046;2023-01-08T06:56:06;5.00;99.90
44705;DHT22;30431;48.520;9.046;2023-01-08T06:58:37;5.00;99.90
44705;DHT22;30431;48.520;9.046;2023-01-08T07:01:09;5.00;99.90
44705;DHT22;30431;48.520;9.046;2023-01-08T07:03:41;5.00;99.90
44705;DHT22;30431;48.520;9.046;2023-01-08T07:06:20;5.10;99.90
44705;DHT22;30431;48.520;9.046;2023-01-08T07:08:49;5.10;99.90
44705;DHT22;30431;48.520;9.046;2023-01-08T07:11:16;5.20;99.90
44705;DHT22;30431;48.520;9.046;2023-01-08T07:13:46;5.20;99.90
44705;DHT22;30431;48.520;9.046;2023-01-08T07:16:18;5.30;99.90
44705;DHT22;30431;48.520;9.046;2023-01-08T07:18:49;5.30;99.90
44705;DHT22;30431;48.520;9.046;2023-01-08T07:21:21;5.20;99.90
44705;DHT22;30431;48.520;9.046;2023-01-08T07:23:49;5.30;99.90
44705;DHT22;30431;48.520;9.046;2023-01-08T07:26:19;5.40;99.90
44705;DHT22;30431;48.520;9.046;2023-01-08T07:28:48;5.50;99.90
44705;DHT22;30431;48.520;9.046;2023-01-08T07:31:21;5.60;99.90
44705;DHT22;30431;48.520;9.046;2023-01-08T07:33:48;5.60;99.90
44705;DHT22;30431;48.520;9.046;2023-01-08T07:36:15;5.70;99.90
44705;DHT22;30431;48.520;9.046;2023-01-08T07:38:45;5.80;99.90
44705;DHT22;30431;48.520;9.046;2023-01-08T07:41:12;5.90;99.90
44705;DHT22;30431;48.520;9.046;2023-01-08T07:43:39;5.90;99.90
44705;DHT22;30431;48.520;9.046;2023-01-08T07:46:06;6.00;99.90
44705;DHT22;30431;48.520;9.046;2023-01-08T07:48:33;6.10;99.90
44705;DHT22;30431;48.520;9.046;2023-01-08T07:51:01;6.20;99.90
44705;DHT22;30431;48.520;9.046;2023-01-08T07:53:28;6.30;99.90
44705;DHT22;30431;48.520;9.046;2023-01-08T07:56:03;6.30;99.90
44705;DHT22;30431;48.520;9.046;2023-01-08T07:58:31;6.40;99.90
44705;DHT22;30431;48.520;9.046;2023-01-08T08:01:01;6.50;99.90
44705;DHT22;30431;48.520;9.046;2023-01-08T08:03:28;6.50;99.90
44705;DHT22;30431;48.520;9.046;2023-01-08T08:05:55;6.60;99.90
44705;DHT22;30431;48.520;9.046;2023-01-08T08:08:23;6.80;99.90
44705;DHT22;30431;48.520;9.046;2023-01-08T08:10:50;6.80;99.90
44705;DHT22;30431;48.520;9.046;2023-01-08T08:13:17;6.90;99.90
44705;DHT22;30431;48.520;9.046;2023-01-08T08:15:44;6.90;99.90
44705;DHT22;30431;48.520;9.046;2023-01-08T08:18:11;7.00;99.90
44705;DHT22;30431;48.520;9.046;2023-01-08T08:20:38;7.00;99.90
44705;DHT22;30431;48.520;9.046;2023-01-08T08:23:08;7.10;99.90
44705;DHT22;30431;48.520;9.046;2023-01-08T08:25:35;7.20;99.90
44705;DHT22;30431;48.520;9.046;2023-01-08T08:28:03;7.20;99.90
44705;DHT22;30431;48.520;9.046;2023-01-08T08:30:32;7.20;99.90
44705;DHT22;30431;48.520;9.046;2023-01-08T08:33:04;7.30;99.90
44705;DHT22;30431;48.520;9.046;2023-01-08T08:35:36;7.30;99.90
44705;DHT22;30431;48.520;9.046;2023-01-08T08:38:06;7.40;99.90
44705;DHT22;30431;48.520;9.046;2023-01-08T08:40:35;7.40;99.90
44705;DHT22;30431;48.520;9.046;2023-01-08T08:43:03;7.40;99.90
44705;DHT22;30431;48.520;9.046;2023-01-08T08:45:30;7.50;99.90
44705;DHT22;30431;48.520;9.046;2023-01-08T08:47:57;7.50;99.90
44705;DHT22;30431;48.520;9.046;2023-01-08T08:50:26;7.60;99.90
44705;DHT22;30431;48.520;9.046;2023-01-08T08:53:01;7.60;99.90
44705;DHT22;30431;48.520;9.046;2023-01-08T08:55:31;7.70;99.90
44705;DHT22;30431;48.520;9.046;2023-01-08T08:58:09;7.70;99.90
44705;DHT22;30431;48.520;9.046;2023-01-08T09:00:41;7.70;99.90
44705;DHT22;30431;48.520;9.046;2023-01-08T09:03:12;7.70;99.90
44705;DHT22;30431;48.520;9.046;2023-01-08T09:05:42;7.80;99.90
44705;DHT22;30431;48.520;9.046;2023-01-08T09:08:12;7.80;99.90
44705;DHT22;30431;48.520;9.046;2023-01-08T09:10:39;7.80;99.90
44705;DHT22;30431;48.520;9.046;2023-01-08T09:13:08;7.80;99.90
44705;DHT22;30431;48.520;9.046;2023-01-08T09:15:38;7.80;99.90
44705;DHT22;30431;48.520;9.046;2023-01-08T09:18:08;7.90;99.90
44705;DHT22;30431;48.520;9.046;2023-01-08T09:20:36;7.90;99.90
44705;DHT22;30431;48.520;9.046;2023-01-08T09:23:05;8.00;99.90
44705;DHT22;30431;48.520;9.046;2023-01-08T09:25:32;8.20;99.90
44705;DHT22;30431;48.520;9.046;2023-01-08T09:28:00;8.40;99.90
44705;DHT22;30431;48.520;9.046;2023-01-08T09:30:30;8.50;99.90
44705;DHT22;30431;48.520;9.046;2023-01-08T09:32:59;8.60;99.90
44705;DHT22;30431;48.520;9.046;2023-01-08T09:35:32;8.70;99.90
44705;DHT22;30431;48.520;9.046;2023-01-08T09:37:59;8.70;99.90
44705;DHT22;30431;48.520;9.046;2023-01-08T09:41:24;8.70;99.90
44705;DHT22;30431;48.520;9.046;2023-01-08T09:43:25;8.70;99.90
44705;DHT22;30431;48.520;9.046;2023-01-08T09:45:57;8.70;99.90
44705;DHT22;30431;48.520;9.046;2023-01-08T09:48:30;8.60;99.90
44705;DHT22;30431;48.520;9.046;2023-01-08T09:51:12;8.60;99.90
44705;DHT22;30431;48.520;9.046;2023-01-08T09:53:40;8.60;99.90
44705;DHT22;30431;48.520;9.046;2023-01-08T09:56:16;8.60;99.90
44705;DHT22;30431;48.520;9.046;2023-01-08T09:59:04;8.70;99.90
44705;DHT22;30431;48.520;9.046;2023-01-08T10:01:36;8.70;99.90
44705;DHT22;30431;48.520;9.046;2023-01-08T10:04:19;8.80;99.90
44705;DHT22;30431;48.520;9.046;2023-01-08T10:07:04;8.90;99.90
44705;DHT22;30431;48.520;9.046;2023-01-08T10:09:34;9.00;99.90
44705;DHT22;30431;48.520;9.046;2023-01-08T10:12:02;9.10;99.90
44705;DHT22;30431;48.520;9.046;2023-01-08T10:14:34;9.10;99.90
44705;DHT22;30431;48.520;9.046;2023-01-08T10:18:11;9.20;99.90
44705;DHT22;30431;48.520;9.046;2023-01-08T10:20:18;9.20;99.90
44705;DHT22;30431;48.520;9.046;2023-01-08T10:22:46;9.30;99.90
44705;DHT22;30431;48.520;9.046;2023-01-08T10:25:22;9.30;99.90
44705;DHT22;30431;48.520;9.046;2023-01-08T10:27:50;9.40;99.90
44705;DHT22;30431;48.520;9.046;2023-01-08T10:30:33;9.40;99.90
44705;DHT22;30431;48.520;9.046;2023-01-08T10:33:17;9.50;99.90
44705;DHT22;30431;48.520;9.046;2023-01-08T10:35:53;9.50;99.90
44705;DHT22;30431;48.520;9.046;2023-01-08T10:38:59;9.60;99.90
44705;DHT22;30431;48.520;9.046;2023-01-08T10:41:36;9.60;99.90
44705;DHT22;30431;48.520;9.046;2023-01-08T10:44:06;9.70;99.90
44705;DHT22;30431;48.520;9.046;2023-01-08T10:46:44;9.70;99.90
44705;DHT22;30431;48.520;9.046;2023-01-08T10:51:52;9.90;99.90
44705;DHT22;30431;48.520;9.046;2023-01-08T10:54:35;10.00;99.90
44705;DHT22;30431;48.520;9.046;2023-01-08T10:59:50;10.30;99.90
44705;DHT22;30431;48.520;9.046;2023-01-08T11:02:28;10.40;99.90
44705;DHT22;30431;48.520;9.046;2023-01-08T11:04:59;10.40;99.90
44705;DHT22;30431;48.520;9.046;2023-01-08T11:07:27;10.40;99.90
44705;DHT22;30431;48.520;9.046;2023-01-08T11:09:55;10.50;99.90
44705;DHT22;30431;48.520;9.046;2023-01-08T11:12:48;10.60;99.90
44705;DHT22;30431;48.520;9.046;2023-01-08T11:17:49;10.70;99.90
44705;DHT22;30431;48.520;9.046;2023-01-08T11:20:23;10.70;99.90
44705;DHT22;30431;48.520;9.046;2023-01-08T11:23:21;10.70;99.90
44705;DHT22;30431;48.520;9.046;2023-01-08T11:28:43;10.90;99.90
44705;DHT22;30431;48.520;9.046;2023-01-08T11:31:22;10.90;99.90
44705;DHT22;30431;48.520;9.046;2023-01-08T11:33:55;11.00;99.90
44705;DHT22;30431;48.520;9.046;2023-01-08T11:36:32;10.90;99.90
44705;DHT22;30431;48.520;9.046;2023-01-08T11:39:01;11.00;99.90
44705;DHT22;30431;48.520;9.046;2023-01-08T11:44:40;11.00;99.90
44705;DHT22;30431;48.520;9.046;2023-01-08T11:50:13;11.20;99.90
44705;DHT22;30431;48.520;9.046;2023-01-08T11:58:06;11.50;99.90
44705;DHT22;30431;48.520;9.046;2023-01-08T12:07:27;11.70;99.90
44705;DHT22;30431;48.520;9.046;2023-01-08T12:10:22;11.80;99.90
44705;DHT22;30431;48.520;9.046;2023-01-08T12:35:12;11.60;99.90
44705;DHT22;30431;48.520;9.046;2023-01-08T12:40:20;11.40;99.90
44705;DHT22;30431;48.520;9.046;2023-01-08T12:42:51;11.30;99.90
44705;DHT22;30431;48.520;9.046;2023-01-08T12:45:33;11.20;99.90
44705;DHT22;30431;48.520;9.046;2023-01-08T12:48:30;11.20;99.90
44705;DHT22;30431;48.520;9.046;2023-01-08T12:51:23;11.20;99.90
44705;DHT22;30431;48.520;9.046;2023-01-08T13:00:07;11.10;99.90
44705;DHT22;30431;48.520;9.046;2023-01-08T13:02:43;11.00;99.90
44705;DHT22;30431;48.520;9.046;2023-01-08T13:07:52;10.70;99.90
44705;DHT22;30431;48.520;9.046;2023-01-08T13:10:31;10.70;99.90
44705;DHT22;30431;48.520;9.046;2023-01-08T13:13:05;10.70;99.90
44705;DHT22;30431;48.520;9.046;2023-01-08T13:15:36;10.60;99.90
44705;DHT22;30431;48.520;9.046;2023-01-08T13:18:19;10.60;99.90
44705;DHT22;30431;48.520;9.046;2023-01-08T13:20:57;10.60;99.90
44705;DHT22;30431;48.520;9.046;2023-01-08T13:23:27;10.50;99.90
44705;DHT22;30431;48.520;9.046;2023-01-08T13:25:59;10.50;99.90
44705;DHT22;30431;48.520;9.046;2023-01-08T13:28:41;10.50;99.90
44705;DHT22;30431;48.520;9.046;2023-01-08T13:33:50;10.50;99.90
44705;DHT22;30431;48.520;9.046;2023-01-08T13:44:01;10.70;99.90
44705;DHT22;30431;48.520;9.046;2023-01-08T13:46:36;10.90;99.90
44705;DHT22;30431;48.520;9.046;2023-01-08T13:49:08;11.20;99.90
44705;DHT22;30431;48.520;9.046;2023-01-08T13:51:43;11.50;99.90
44705;DHT22;30431;48.520;9.046;2023-01-08T13:56:44;11.80;99.90
44705;DHT22;30431;48.520;9.046;2023-01-08T13:59:35;11.90;99.90
44705;DHT22;30431;48.520;9.046;2023-01-08T14:02:27;11.90;99.90
44705;DHT22;30431;48.520;9.046;2023-01-08T14:04:59;11.70;99.90
44705;DHT22;30431;48.520;9.046;2023-01-08T14:07:27;11.50;99.90
44705;DHT22;30431;48.520;9.046;2023-01-08T14:10:07;11.40;99.90
44705;DHT22;30431;48.520;9.046;2023-01-08T14:12:35;11.30;99.90
44705;DHT22;30431;48.520;9.046;2023-01-08T14:15:08;11.20;99.90
44705;DHT22;30431;48.520;9.046;2023-01-08T14:17:42;11.20;99.90
44705;DHT22;30431;48.520;9.046;2023-01-08T14:20:11;11.20;99.90
44705;DHT22;30431;48.520;9.046;2023-01-08T14:22:41;11.10;99.90
44705;DHT22;30431;48.520;9.046;2023-01-08T14:25:12;11.10;99.90
44705;DHT22;30431;48.520;9.046;2023-01-08T14:27:41;11.00;99.90
44705;DHT22;30431;48.520;9.046;2023-01-08T14:30:15;10.90;99.90
44705;DHT22;30431;48.520;9.046;2023-01-08T14:32:43;10.90;99.90
44705;DHT22;30431;48.520;9.046;2023-01-08T14:35:17;10.80;99.90
44705;DHT22;30431;48.520;9.046;2023-01-08T14:37:46;10.80;99.90
44705;DHT22;30431;48.520;9.046;2023-01-08T14:40:27;10.80;99.90
44705;DHT22;30431;48.520;9.046;2023-01-08T14:43:00;10.70;99.90
44705;DHT22;30431;48.520;9.046;2023-01-08T14:45:29;10.60;99.90
44705;DHT22;30431;48.520;9.046;2023-01-08T14:48:29;10.50;99.90
44705;DHT22;30431;48.520;9.046;2023-01-08T14:53:36;10.50;99.90
44705;DHT22;30431;48.520;9.046;2023-01-08T14:56:04;10.40;99.90
44705;DHT22;30431;48.520;9.046;2023-01-08T14:58:38;10.40;99.90
44705;DHT22;30431;48.520;9.046;2023-01-08T15:03:47;10.40;99.90
44705;DHT22;30431;48.520;9.046;2023-01-08T15:06:28;10.30;99.90
44705;DHT22;30431;48.520;9.046;2023-01-08T15:09:19;10.30;99.90
44705;DHT22;30431;48.520;9.046;2023-01-08T15:11:54;10.20;99.90
44705;DHT22;30431;48.520;9.046;2023-01-08T15:14:26;10.20;99.90
44705;DHT22;30431;48.520;9.046;2023-01-08T15:16:58;10.20;99.90
44705;DHT22;30431;48.520;9.046;2023-01-08T15:19:37;10.10;99.90
44705;DHT22;30431;48.520;9.046;2023-01-08T15:22:13;10.00;99.90
44705;DHT22;30431;48.520;9.046;2023-01-08T15:24:41;9.90;99.90
44705;DHT22;30431;48.520;9.046;2023-01-08T15:27:17;9.90;99.90
44705;DHT22;30431;48.520;9.046;2023-01-08T15:29:53;9.80;99.90
44705;DHT22;30431;48.520;9.046;2023-01-08T15:32:29;9.80;99.90
44705;DHT22;30431;48.520;9.046;2023-01-08T15:34:58;9.80;99.90
44705;DHT22;30431;48.520;9.046;2023-01-08T15:37:27;9.80;99.90
44705;DHT22;30431;48.520;9.046;2023-01-08T15:39:59;9.80;99.90
44705;DHT22;30431;48.520;9.046;2023-01-08T15:42:27;9.70;99.90
44705;DHT22;30431;48.520;9.046;2023-01-08T15:45:18;9.70;99.90
44705;DHT22;30431;48.520;9.046;2023-01-08T15:47:45;9.50;99.90
44705;DHT22;30431;48.520;9.046;2023-01-08T15:50:14;9.40;99.90
44705;DHT22;30431;48.520;9.046;2023-01-08T15:52:44;9.40;99.90
44705;DHT22;30431;48.520;9.046;2023-01-08T15:55:21;9.40;99.90
44705;DHT22;30431;48.520;9.046;2023-01-08T15:57:48;9.50;99.90
44705;DHT22;30431;48.520;9.046;2023-01-08T16:00:17;9.60;99.90
44705;DHT22;30431;48.520;9.046;2023-01-08T16:02:46;9.50;99.90
44705;DHT22;30431;48.520;9.046;2023-01-08T16:05:20;9.50;99.90
44705;DHT22;30431;48.520;9.046;2023-01-08T16:07:52;9.50;99.90
44705;DHT22;30431;48.520;9.046;2023-01-08T16:10:22;9.50;99.90
44705;DHT22;30431;48.520;9.046;2023-01-08T16:12:54;9.40;99.90
44705;DHT22;30431;48.520;9.046;2023-01-08T16:15:21;9.40;99.90
44705;DHT22;30431;48.520;9.046;2023-01-08T16:17:49;9.40;99.90
44705;DHT22;30431;48.520;9.046;2023-01-08T16:20:19;9.40;99.90
44705;DHT22;30431;48.520;9.046;2023-01-08T16:22:46;9.30;99.90
44705;DHT22;30431;48.520;9.046;2023-01-08T16:25:18;9.40;99.90
44705;DHT22;30431;48.520;9.046;2023-01-08T16:27:47;9.40;99.90
44705;DHT22;30431;48.520;9.046;2023-01-08T16:30:17;9.40;99.90
44705;DHT22;30431;48.520;9.046;2023-01-08T16:32:53;9.30;99.90
44705;DHT22;30431;48.520;9.046;2023-01-08T16:35:21;9.30;99.90
44705;DHT22;30431;48.520;9.046;2023-01-08T16:37:48;9.30;99.90
44705;DHT22;30431;48.520;9.046;2023-01-08T16:40:15;9.30;99.90
44705;DHT22;30431;48.520;9.046;2023-01-08T16:42:42;9.30;99.90
44705;DHT22;30431;48.520;9.046;2023-01-08T16:45:09;9.20;99.90
44705;DHT22;30431;48.520;9.046;2023-01-08T16:47:38;9.20;99.90
44705;DHT22;30431;48.520;9.046;2023-01-08T16:50:06;9.20;99.90
44705;DHT22;30431;48.520;9.046;2023-01-08T16:52:38;9.20;99.90
44705;DHT22;30431;48.520;9.046;2023-01-08T16:55:10;9.10;99.90
44705;DHT22;30431;48.520;9.046;2023-01-08T16:57:42;9.10;99.90
44705;DHT22;30431;48.520;9.046;2023-01-08T17:00:10;9.10;99.90
44705;DHT22;30431;48.520;9.046;2023-01-08T17:02:39;9.10;99.90
44705;DHT22;30431;48.520;9.046;2023-01-08T17:05:08;9.00;99.90
44705;DHT22;30431;48.520;9.046;2023-01-08T17:07:35;9.00;99.90
44705;DHT22;30431;48.520;9.046;2023-01-08T17:10:05;8.90;99.90
44705;DHT22;30431;48.520;9.046;2023-01-08T17:12:32;8.90;99.90
44705;DHT22;30431;48.520;9.046;2023-01-08T17:15:01;8.90;99.90
44705;DHT22;30431;48.520;9.046;2023-01-08T17:17:29;8.90;99.90
44705;DHT22;30431;48.520;9.046;2023-01-08T17:19:56;8.90;99.90
44705;DHT22;30431;48.520;9.046;2023-01-08T17:22:25;8.90;99.90
44705;DHT22;30431;48.520;9.046;2023-01-08T17:24:55;8.90;99.90
44705;DHT22;30431;48.520;9.046;2023-01-08T17:27:24;8.90;99.90
44705;DHT22;30431;48.520;9.046;2023-01-08T17:29:51;8.80;99.90
44705;DHT22;30431;48.520;9.046;2023-01-08T17:32:21;8.70;99.90
44705;DHT22;30431;48.520;9.046;2023-01-08T17:34:48;8.70;99.90
44705;DHT22;30431;48.520;9.046;2023-01-08T17:37:15;8.60;99.90
44705;DHT22;30431;48.520;9.046;2023-01-08T17:39:42;8.50;99.90
44705;DHT22;30431;48.520;9.046;2023-01-08T17:42:12;8.50;99.90
44705;DHT22;30431;48.520;9.046;2023-01-08T17:44:51;8.50;99.90
44705;DHT22;30431;48.520;9.046;2023-01-08T17:47:18;8.40;99.90
44705;DHT22;30431;48.520;9.046;2023-01-08T17:49:52;8.40;99.90
44705;DHT22;30431;48.520;9.046;2023-01-08T17:52:21;8.50;99.90
44705;DHT22;30431;48.520;9.046;2023-01-08T17:54:52;8.40;99.90
44705;DHT22;30431;48.520;9.046;2023-01-08T17:57:22;8.30;99.90
44705;DHT22;30431;48.520;9.046;2023-01-08T17:59:54;8.20;99.90
44705;DHT22;30431;48.520;9.046;2023-01-08T18:02:23;8.20;99.90
44705;DHT22;30431;48.520;9.046;2023-01-08T18:04:50;8.20;99.90